createdAt,value
2022-08-19T07:28:51.498Z,25.30
2022-08-19T07:38:50.651Z,24.80
2022-08-19T07:48:50.291Z,24.80
2022-08-19T08:08:55.078Z,22.80
2022-08-19T08:18:54.722Z,25.40
2022-08-19T08:28:54.347Z,25.50
2022-08-19T08:48:59.120Z,31.00
2022-08-19T08:58:58.756Z,38.40
2022-08-19T09:08:58.440Z,33.30
2022-08-19T09:18:58.037Z,27.70
2022-08-19T09:28:57.668Z,25.60
2022-08-19T09:39:02.837Z,26.60
2022-08-19T09:49:03.097Z,26.80
2022-08-19T09:59:02.090Z,24.10
2022-08-19T10:09:01.728Z,25.30
2022-08-19T10:19:06.855Z,24.70
2022-08-19T10:29:06.503Z,23.80
2022-08-19T10:39:06.155Z,25.30
2022-08-19T10:49:05.802Z,19.30
2022-08-19T10:59:10.942Z,22.20
2022-08-19T11:09:10.594Z,19.30
2022-08-19T11:19:10.278Z,16.30
2022-08-19T11:29:09.856Z,17.60
2022-08-19T11:39:14.998Z,18.00
2022-08-19T11:49:14.638Z,15.10
2022-08-19T11:59:15.265Z,15.60
2022-08-19T12:09:32.851Z,16.30
2022-08-19T12:19:21.935Z,14.70
2022-08-19T12:29:21.558Z,16.90
2022-08-19T12:39:22.857Z,15.40
2022-08-19T12:49:44.444Z,13.40
2022-08-19T12:59:22.131Z,17.70
2022-08-19T13:09:22.221Z,11.30
2022-08-19T13:19:27.352Z,11.10
2022-08-19T13:29:26.980Z,11.60
2022-08-19T13:39:26.623Z,11.80
2022-08-19T13:49:31.771Z,12.10
2022-08-19T13:59:31.407Z,10.90
2022-08-19T14:09:31.059Z,11.00
2022-08-19T14:19:36.202Z,11.20
2022-08-19T14:29:35.883Z,10.10
2022-08-19T14:39:35.557Z,9.50
2022-08-19T14:49:41.691Z,9.40
2022-08-19T14:59:40.267Z,9.10
2022-08-19T15:09:39.900Z,8.70
2022-08-19T15:19:45.026Z,10.20
2022-08-19T15:29:44.660Z,9.30
2022-08-19T15:39:44.321Z,9.20
2022-08-19T15:49:49.439Z,9.60
2022-08-19T15:59:49.068Z,8.70
2022-08-19T16:09:48.743Z,8.20
2022-08-19T16:19:53.868Z,7.50
2022-08-19T16:29:53.525Z,9.40
2022-08-19T16:39:53.395Z,9.10
2022-08-19T16:49:58.502Z,8.90
2022-08-19T16:59:58.155Z,8.80
2022-08-19T17:09:58.318Z,8.40
2022-08-19T17:20:02.858Z,9.40
2022-08-19T17:30:02.874Z,8.30
2022-08-19T17:40:02.242Z,8.10
2022-08-19T17:50:07.294Z,7.60
2022-08-19T18:00:08.742Z,7.80
2022-08-19T18:10:06.558Z,8.00
2022-08-19T18:20:12.295Z,8.00
2022-08-19T18:30:11.302Z,8.30
2022-08-19T18:40:11.259Z,11.50
2022-08-19T18:50:16.110Z,10.70
2022-08-19T19:00:15.163Z,9.80
2022-08-19T19:10:14.770Z,9.40
2022-08-19T19:20:19.583Z,9.90
2022-08-19T19:30:19.238Z,10.30
2022-08-19T19:40:18.931Z,10.50
2022-08-19T19:50:23.984Z,10.70
2022-08-19T20:00:23.775Z,9.90
2022-08-19T20:10:22.815Z,11.30
2022-08-19T20:20:27.940Z,8.20
2022-08-19T20:30:27.576Z,8.70
2022-08-19T20:40:27.207Z,8.80
2022-08-19T20:50:27.005Z,9.20
2022-08-19T21:00:31.969Z,9.00
2022-08-19T21:10:31.607Z,10.10
2022-08-19T21:20:31.249Z,9.40
2022-08-19T21:30:30.874Z,9.20
2022-08-19T21:40:36.010Z,8.90
2022-08-19T21:50:35.637Z,8.70
2022-08-19T22:00:35.314Z,8.60
2022-08-19T22:10:34.893Z,8.30
2022-08-19T22:20:40.013Z,7.20
2022-08-19T22:30:39.649Z,7.10
2022-08-19T22:40:39.282Z,6.70
2022-08-19T22:50:38.902Z,8.10
2022-08-19T23:00:44.094Z,6.00
2022-08-19T23:10:43.686Z,5.80
2022-08-19T23:20:43.327Z,6.40
2022-08-19T23:30:42.955Z,6.10
2022-08-19T23:40:42.956Z,5.60
2022-08-19T23:50:48.094Z,5.00
